sensor_id;sensor_type;location;lat;lon;timestamp;P1;durP1;ratioP1;P2;durP2;ratioP2
84033;SDS011;74115;55.806;37.754;2024-03-23T00:55:59;22.80;;;13.45;;
84033;SDS011;74115;55.806;37.754;2024-03-23T00:58:25;21.55;;;12.23;;
84033;SDS011;74115;55.806;37.754;2024-03-23T01:00:51;23.25;;;10.95;;
84033;SDS011;74115;55.806;37.754;2024-03-23T01:03:16;21.88;;;11.10;;
84033;SDS011;74115;55.806;37.754;2024-03-23T01:05:42;19.27;;;10.77;;
84033;SDS011;74115;55.806;37.754;2024-03-23T01:08:08;21.25;;;11.70;;
84033;SDS011;74115;55.806;37.754;2024-03-23T01:10:33;25.58;;;11.35;;
84033;SDS011;74115;55.806;37.754;2024-03-23T01:12:59;19.08;;;11.95;;
84033;SDS011;74115;55.806;37.754;2024-03-23T01:15:25;20.75;;;11.07;;
84033;SDS011;74115;55.806;37.754;2024-03-23T01:17:51;19.77;;;12.43;;
84033;SDS011;74115;55.806;37.754;2024-03-23T01:20:16;22.88;;;11.10;;
84033;SDS011;74115;55.806;37.754;2024-03-23T01:22:42;20.45;;;12.38;;
84033;SDS011;74115;55.806;37.754;2024-03-23T01:25:08;26.88;;;13.10;;
84033;SDS011;74115;55.806;37.754;2024-03-23T01:27:33;23.42;;;11.35;;
84033;SDS011;74115;55.806;37.754;2024-03-23T01:29:59;21.95;;;12.35;;
84033;SDS011;74115;55.806;37.754;2024-03-23T01:32:25;22.50;;;11.90;;
84033;SDS011;74115;55.806;37.754;2024-03-23T01:34:51;24.95;;;12.73;;
84033;SDS011;74115;55.806;37.754;2024-03-23T01:37:17;20.80;;;11.65;;
84033;SDS011;74115;55.806;37.754;2024-03-23T01:39:43;25.80;;;12.98;;
84033;SDS011;74115;55.806;37.754;2024-03-23T01:42:08;28.50;;;15.00;;
84033;SDS011;74115;55.806;37.754;2024-03-23T01:44:34;24.65;;;11.95;;
84033;SDS011;74115;55.806;37.754;2024-03-23T01:47:00;23.63;;;12.13;;
84033;SDS011;74115;55.806;37.754;2024-03-23T01:49:25;26.80;;;13.75;;
84033;SDS011;74115;55.806;37.754;2024-03-23T01:51:51;22.25;;;12.60;;
84033;SDS011;74115;55.806;37.754;2024-03-23T01:54:17;21.67;;;12.50;;
84033;SDS011;74115;55.806;37.754;2024-03-23T01:56:43;19.95;;;11.93;;
84033;SDS011;74115;55.806;37.754;2024-03-23T01:59:08;22.67;;;12.48;;
84033;SDS011;74115;55.806;37.754;2024-03-23T02:01:34;22.83;;;11.10;;
84033;SDS011;74115;55.806;37.754;2024-03-23T02:04:03;25.98;;;13.40;;
84033;SDS011;74115;55.806;37.754;2024-03-23T02:06:29;26.35;;;12.90;;
84033;SDS011;74115;55.806;37.754;2024-03-23T02:08:55;21.73;;;14.25;;
84033;SDS011;74115;55.806;37.754;2024-03-23T02:11:21;22.88;;;11.90;;
84033;SDS011;74115;55.806;37.754;2024-03-23T02:13:47;24.45;;;11.65;;
84033;SDS011;74115;55.806;37.754;2024-03-23T02:16:17;21.33;;;12.48;;
84033;SDS011;74115;55.806;37.754;2024-03-23T02:18:43;18.90;;;9.50;;
84033;SDS011;74115;55.806;37.754;2024-03-23T02:21:08;22.27;;;12.38;;
84033;SDS011;74115;55.806;37.754;2024-03-23T02:23:34;21.90;;;11.52;;
84033;SDS011;74115;55.806;37.754;2024-03-23T02:26:00;25.27;;;12.07;;
84033;SDS011;74115;55.806;37.754;2024-03-23T02:28:25;23.75;;;11.43;;
84033;SDS011;74115;55.806;37.754;2024-03-23T02:30:51;24.38;;;12.65;;
84033;SDS011;74115;55.806;37.754;2024-03-23T02:33:17;23.60;;;10.77;;
84033;SDS011;74115;55.806;37.754;2024-03-23T02:35:43;27.73;;;13.35;;
84033;SDS011;74115;55.806;37.754;2024-03-23T02:38:10;21.92;;;11.00;;
84033;SDS011;74115;55.806;37.754;2024-03-23T02:40:40;22.42;;;13.18;;
84033;SDS011;74115;55.806;37.754;2024-03-23T02:43:06;21.00;;;12.25;;
84033;SDS011;74115;55.806;37.754;2024-03-23T02:45:32;20.38;;;11.50;;
84033;SDS011;74115;55.806;37.754;2024-03-23T02:47:58;25.48;;;12.95;;
84033;SDS011;74115;55.806;37.754;2024-03-23T02:50:23;19.67;;;12.73;;
84033;SDS011;74115;55.806;37.754;2024-03-23T02:52:49;27.27;;;13.30;;
84033;SDS011;74115;55.806;37.754;2024-03-23T02:55:15;23.85;;;12.90;;
84033;SDS011;74115;55.806;37.754;2024-03-23T02:57:41;22.23;;;11.65;;
84033;SDS011;74115;55.806;37.754;2024-03-23T03:00:07;22.85;;;13.40;;
84033;SDS011;74115;55.806;37.754;2024-03-23T03:02:33;21.50;;;10.10;;
84033;SDS011;74115;55.806;37.754;2024-03-23T03:04:59;22.48;;;12.00;;
84033;SDS011;74115;55.806;37.754;2024-03-23T03:07:25;22.20;;;13.00;;
84033;SDS011;74115;55.806;37.754;2024-03-23T03:09:51;22.90;;;12.13;;
84033;SDS011;74115;55.806;37.754;2024-03-23T03:12:16;16.75;;;9.18;;
84033;SDS011;74115;55.806;37.754;2024-03-23T03:14:42;17.70;;;10.73;;
84033;SDS011;74115;55.806;37.754;2024-03-23T03:17:08;23.58;;;11.40;;
84033;SDS011;74115;55.806;37.754;2024-03-23T03:19:34;22.20;;;12.52;;
84033;SDS011;74115;55.806;37.754;2024-03-23T03:21:59;25.98;;;12.73;;
84033;SDS011;74115;55.806;37.754;2024-03-23T03:24:25;23.25;;;11.32;;
84033;SDS011;74115;55.806;37.754;2024-03-23T03:26:51;22.90;;;11.73;;
84033;SDS011;74115;55.806;37.754;2024-03-23T03:29:17;20.55;;;11.55;;
84033;SDS011;74115;55.806;37.754;2024-03-23T03:31:43;18.83;;;9.77;;
84033;SDS011;74115;55.806;37.754;2024-03-23T03:34:09;20.75;;;10.73;;
84033;SDS011;74115;55.806;37.754;2024-03-23T03:36:34;20.23;;;11.25;;
84033;SDS011;74115;55.806;37.754;2024-03-23T03:39:00;22.95;;;12.07;;
84033;SDS011;74115;55.806;37.754;2024-03-23T03:41:28;21.17;;;11.88;;
84033;SDS011;74115;55.806;37.754;2024-03-23T03:43:53;21.25;;;10.63;;
84033;SDS011;74115;55.806;37.754;2024-03-23T03:46:20;19.70;;;12.48;;
84033;SDS011;74115;55.806;37.754;2024-03-23T03:48:46;26.20;;;13.55;;
84033;SDS011;74115;55.806;37.754;2024-03-23T03:51:13;19.00;;;10.35;;
84033;SDS011;74115;55.806;37.754;2024-03-23T03:53:39;20.80;;;11.07;;
84033;SDS011;74115;55.806;37.754;2024-03-23T03:56:05;28.00;;;13.70;;
84033;SDS011;74115;55.806;37.754;2024-03-23T03:58:30;29.42;;;14.95;;
84033;SDS011;74115;55.806;37.754;2024-03-23T04:00:56;23.02;;;12.20;;
84033;SDS011;74115;55.806;37.754;2024-03-23T04:03:22;18.50;;;11.23;;
84033;SDS011;74115;55.806;37.754;2024-03-23T04:05:54;22.83;;;12.13;;
84033;SDS011;74115;55.806;37.754;2024-03-23T04:08:20;25.27;;;12.02;;
84033;SDS011;74115;55.806;37.754;2024-03-23T04:10:46;27.30;;;11.05;;
84033;SDS011;74115;55.806;37.754;2024-03-23T04:13:12;28.60;;;13.70;;
84033;SDS011;74115;55.806;37.754;2024-03-23T04:15:38;24.00;;;13.25;;
84033;SDS011;74115;55.806;37.754;2024-03-23T04:18:05;21.42;;;10.95;;
84033;SDS011;74115;55.806;37.754;2024-03-23T04:20:31;20.75;;;11.50;;
84033;SDS011;74115;55.806;37.754;2024-03-23T04:22:57;21.42;;;10.23;;
84033;SDS011;74115;55.806;37.754;2024-03-23T04:25:26;18.45;;;12.32;;
84033;SDS011;74115;55.806;37.754;2024-03-23T04:27:52;23.90;;;11.07;;
84033;SDS011;74115;55.806;37.754;2024-03-23T04:30:18;19.02;;;12.02;;
84033;SDS011;74115;55.806;37.754;2024-03-23T04:32:44;23.70;;;12.70;;
84033;SDS011;74115;55.806;37.754;2024-03-23T04:35:10;32.30;;;12.77;;
84033;SDS011;74115;55.806;37.754;2024-03-23T04:37:36;20.75;;;11.07;;
84033;SDS011;74115;55.806;37.754;2024-03-23T04:40:03;21.52;;;12.20;;
84033;SDS011;74115;55.806;37.754;2024-03-23T04:42:31;22.17;;;10.05;;
84033;SDS011;74115;55.806;37.754;2024-03-23T04:44:57;20.20;;;10.98;;
84033;SDS011;74115;55.806;37.754;2024-03-23T04:47:23;26.25;;;12.00;;
84033;SDS011;74115;55.806;37.754;2024-03-23T04:49:49;22.13;;;13.18;;
84033;SDS011;74115;55.806;37.754;2024-03-23T04:52:15;21.00;;;13.80;;
84033;SDS011;74115;55.806;37.754;2024-03-23T04:54:45;22.40;;;11.55;;
84033;SDS011;74115;55.806;37.754;2024-03-23T04:57:11;28.77;;;11.85;;
84033;SDS011;74115;55.806;37.754;2024-03-23T04:59:37;20.33;;;10.45;;
84033;SDS011;74115;55.806;37.754;2024-03-23T05:02:02;24.38;;;12.93;;
84033;SDS011;74115;55.806;37.754;2024-03-23T05:04:28;18.65;;;9.80;;
84033;SDS011;74115;55.806;37.754;2024-03-23T05:06:54;19.63;;;10.18;;
84033;SDS011;74115;55.806;37.754;2024-03-23T05:09:20;19.35;;;10.63;;
84033;SDS011;74115;55.806;37.754;2024-03-23T05:11:46;21.23;;;10.48;;
84033;SDS011;74115;55.806;37.754;2024-03-23T05:14:13;21.27;;;9.05;;
84033;SDS011;74115;55.806;37.754;2024-03-23T05:16:38;20.98;;;11.38;;
84033;SDS011;74115;55.806;37.754;2024-03-23T05:19:04;21.50;;;10.30;;
84033;SDS011;74115;55.806;37.754;2024-03-23T05:21:30;18.63;;;10.38;;
84033;SDS011;74115;55.806;37.754;2024-03-23T05:23:55;18.98;;;10.60;;
84033;SDS011;74115;55.806;37.754;2024-03-23T05:26:22;16.38;;;10.10;;
84033;SDS011;74115;55.806;37.754;2024-03-23T05:28:47;19.02;;;12.52;;
84033;SDS011;74115;55.806;37.754;2024-03-23T05:31:22;25.10;;;10.90;;
84033;SDS011;74115;55.806;37.754;2024-03-23T05:33:51;21.00;;;9.07;;
84033;SDS011;74115;55.806;37.754;2024-03-23T05:36:17;20.90;;;9.63;;
84033;SDS011;74115;55.806;37.754;2024-03-23T05:38:43;17.40;;;10.68;;
84033;SDS011;74115;55.806;37.754;2024-03-23T05:41:09;18.33;;;9.93;;
84033;SDS011;74115;55.806;37.754;2024-03-23T05:43:35;17.02;;;10.20;;
84033;SDS011;74115;55.806;37.754;2024-03-23T05:46:03;16.58;;;9.38;;
84033;SDS011;74115;55.806;37.754;2024-03-23T05:51:37;13.27;;;8.23;;
84033;SDS011;74115;55.806;37.754;2024-03-23T05:54:03;15.32;;;9.88;;
84033;SDS011;74115;55.806;37.754;2024-03-23T05:56:28;21.30;;;9.50;;
84033;SDS011;74115;55.806;37.754;2024-03-23T05:58:54;17.65;;;10.32;;
84033;SDS011;74115;55.806;37.754;2024-03-23T06:01:20;15.30;;;9.02;;
84033;SDS011;74115;55.806;37.754;2024-03-23T06:03:45;16.45;;;9.30;;
84033;SDS011;74115;55.806;37.754;2024-03-23T06:06:11;17.25;;;9.85;;
84033;SDS011;74115;55.806;37.754;2024-03-23T06:08:38;18.80;;;10.23;;
84033;SDS011;74115;55.806;37.754;2024-03-23T06:11:04;15.43;;;8.98;;
84033;SDS011;74115;55.806;37.754;2024-03-23T06:13:31;14.90;;;9.07;;
84033;SDS011;74115;55.806;37.754;2024-03-23T06:16:00;15.27;;;8.73;;
84033;SDS011;74115;55.806;37.754;2024-03-23T06:18:27;15.55;;;9.73;;
84033;SDS011;74115;55.806;37.754;2024-03-23T06:20:53;13.10;;;8.88;;
84033;SDS011;74115;55.806;37.754;2024-03-23T06:23:19;15.65;;;8.52;;
84033;SDS011;74115;55.806;37.754;2024-03-23T06:25:47;20.90;;;10.48;;
84033;SDS011;74115;55.806;37.754;2024-03-23T06:28:13;14.35;;;8.38;;
84033;SDS011;74115;55.806;37.754;2024-03-23T06:30:39;17.05;;;8.73;;
84033;SDS011;74115;55.806;37.754;2024-03-23T06:33:05;14.95;;;9.80;;
84033;SDS011;74115;55.806;37.754;2024-03-23T06:35:31;15.63;;;8.18;;
84033;SDS011;74115;55.806;37.754;2024-03-23T06:37:57;15.35;;;9.13;;
84033;SDS011;74115;55.806;37.754;2024-03-23T06:40:23;16.77;;;8.95;;
84033;SDS011;74115;55.806;37.754;2024-03-23T06:42:49;15.48;;;8.98;;
84033;SDS011;74115;55.806;37.754;2024-03-23T06:45:16;13.23;;;7.78;;
84033;SDS011;74115;55.806;37.754;2024-03-23T06:47:42;13.13;;;7.32;;
84033;SDS011;74115;55.806;37.754;2024-03-23T06:50:08;16.70;;;9.18;;
84033;SDS011;74115;55.806;37.754;2024-03-23T06:52:35;19.63;;;9.85;;
84033;SDS011;74115;55.806;37.754;2024-03-23T06:55:01;11.18;;;6.97;;
84033;SDS011;74115;55.806;37.754;2024-03-23T06:57:30;12.63;;;8.15;;
84033;SDS011;74115;55.806;37.754;2024-03-23T06:59:56;14.98;;;8.35;;
84033;SDS011;74115;55.806;37.754;2024-03-23T07:02:22;15.05;;;7.57;;
84033;SDS011;74115;55.806;37.754;2024-03-23T07:04:48;16.98;;;9.00;;
84033;SDS011;74115;55.806;37.754;2024-03-23T07:07:14;14.95;;;7.88;;
84033;SDS011;74115;55.806;37.754;2024-03-23T07:09:39;12.38;;;7.18;;
84033;SDS011;74115;55.806;37.754;2024-03-23T07:12:05;14.23;;;8.23;;
84033;SDS011;74115;55.806;37.754;2024-03-23T07:14:31;12.52;;;7.45;;
84033;SDS011;74115;55.806;37.754;2024-03-23T07:16:57;12.98;;;7.63;;
84033;SDS011;74115;55.806;37.754;2024-03-23T07:19:23;10.18;;;6.43;;
84033;SDS011;74115;55.806;37.754;2024-03-23T07:21:50;14.00;;;8.60;;
84033;SDS011;74115;55.806;37.754;2024-03-23T07:24:16;12.25;;;9.25;;
84033;SDS011;74115;55.806;37.754;2024-03-23T07:26:42;10.88;;;6.65;;
84033;SDS011;74115;55.806;37.754;2024-03-23T07:29:09;11.55;;;7.40;;
84033;SDS011;74115;55.806;37.754;2024-03-23T07:31:34;12.65;;;7.00;;
84033;SDS011;74115;55.806;37.754;2024-03-23T07:34:00;13.40;;;6.88;;
84033;SDS011;74115;55.806;37.754;2024-03-23T07:36:26;10.85;;;7.50;;
84033;SDS011;74115;55.806;37.754;2024-03-23T07:38:52;13.32;;;7.05;;
84033;SDS011;74115;55.806;37.754;2024-03-23T07:41:19;9.85;;;7.53;;
84033;SDS011;74115;55.806;37.754;2024-03-23T07:43:46;11.65;;;6.07;;
84033;SDS011;74115;55.806;37.754;2024-03-23T07:46:12;11.70;;;7.72;;
84033;SDS011;74115;55.806;37.754;2024-03-23T07:48:39;12.10;;;6.75;;
84033;SDS011;74115;55.806;37.754;2024-03-23T07:51:08;10.38;;;7.15;;
84033;SDS011;74115;55.806;37.754;2024-03-23T07:53:35;11.02;;;6.50;;
84033;SDS011;74115;55.806;37.754;2024-03-23T07:56:03;15.00;;;7.70;;
84033;SDS011;74115;55.806;37.754;2024-03-23T07:58:33;12.23;;;6.40;;
84033;SDS011;74115;55.806;37.754;2024-03-23T08:01:03;9.68;;;6.50;;
84033;SDS011;74115;55.806;37.754;2024-03-23T08:03:30;11.80;;;6.65;;
84033;SDS011;74115;55.806;37.754;2024-03-23T08:05:56;13.02;;;7.32;;
84033;SDS011;74115;55.806;37.754;2024-03-23T08:08:22;13.38;;;6.40;;
84033;SDS011;74115;55.806;37.754;2024-03-23T08:10:51;13.18;;;6.63;;
84033;SDS011;74115;55.806;37.754;2024-03-23T08:13:18;11.05;;;7.70;;
84033;SDS011;74115;55.806;37.754;2024-03-23T08:15:44;10.32;;;7.13;;
84033;SDS011;74115;55.806;37.754;2024-03-23T08:18:13;8.45;;;5.95;;
84033;SDS011;74115;55.806;37.754;2024-03-23T08:20:40;9.88;;;5.93;;
84033;SDS011;74115;55.806;37.754;2024-03-23T08:23:07;12.02;;;5.72;;
84033;SDS011;74115;55.806;37.754;2024-03-23T08:25:33;7.28;;;5.75;;
84033;SDS011;74115;55.806;37.754;2024-03-23T08:27:59;10.30;;;6.93;;
84033;SDS011;74115;55.806;37.754;2024-03-23T08:30:25;9.50;;;7.32;;
84033;SDS011;74115;55.806;37.754;2024-03-23T08:32:51;13.07;;;6.50;;
84033;SDS011;74115;55.806;37.754;2024-03-23T08:35:17;10.65;;;7.68;;
84033;SDS011;74115;55.806;37.754;2024-03-23T08:37:43;17.33;;;6.78;;
84033;SDS011;74115;55.806;37.754;2024-03-23T08:40:09;12.65;;;7.60;;
84033;SDS011;74115;55.806;37.754;2024-03-23T08:42:35;12.05;;;8.35;;
84033;SDS011;74115;55.806;37.754;2024-03-23T08:47:29;11.77;;;7.18;;
84033;SDS011;74115;55.806;37.754;2024-03-23T08:49:54;12.02;;;6.22;;
84033;SDS011;74115;55.806;37.754;2024-03-23T08:52:20;10.77;;;8.05;;
84033;SDS011;74115;55.806;37.754;2024-03-23T08:54:48;10.93;;;6.88;;
84033;SDS011;74115;55.806;37.754;2024-03-23T08:57:14;9.75;;;6.40;;
84033;SDS011;74115;55.806;37.754;2024-03-23T08:59:39;12.68;;;5.70;;
84033;SDS011;74115;55.806;37.754;2024-03-23T09:02:05;10.50;;;6.63;;
84033;SDS011;74115;55.806;37.754;2024-03-23T09:04:31;12.07;;;7.15;;
84033;SDS011;74115;55.806;37.754;2024-03-23T09:06:57;8.60;;;5.30;;
84033;SDS011;74115;55.806;37.754;2024-03-23T09:09:25;7.55;;;5.80;;
84033;SDS011;74115;55.806;37.754;2024-03-23T09:11:51;9.48;;;7.15;;
84033;SDS011;74115;55.806;37.754;2024-03-23T09:14:16;13.15;;;5.38;;
84033;SDS011;74115;55.806;37.754;2024-03-23T09:16:42;10.35;;;6.25;;
84033;SDS011;74115;55.806;37.754;2024-03-23T09:19:08;10.63;;;6.03;;
84033;SDS011;74115;55.806;37.754;2024-03-23T09:21:34;9.52;;;5.07;;
84033;SDS011;74115;55.806;37.754;2024-03-23T09:23:59;10.50;;;6.95;;
84033;SDS011;74115;55.806;37.754;2024-03-23T09:26:25;9.40;;;6.07;;
84033;SDS011;74115;55.806;37.754;2024-03-23T09:28:51;8.70;;;6.15;;
84033;SDS011;74115;55.806;37.754;2024-03-23T09:31:17;6.85;;;5.45;;
84033;SDS011;74115;55.806;37.754;2024-03-23T09:33:43;10.43;;;6.30;;
84033;SDS011;74115;55.806;37.754;2024-03-23T09:36:09;8.73;;;5.88;;
84033;SDS011;74115;55.806;37.754;2024-03-23T09:38:35;9.70;;;6.78;;
84033;SDS011;74115;55.806;37.754;2024-03-23T09:41:08;13.68;;;5.63;;
84033;SDS011;74115;55.806;37.754;2024-03-23T09:43:35;12.05;;;6.65;;
84033;SDS011;74115;55.806;37.754;2024-03-23T09:46:04;9.52;;;6.32;;
84033;SDS011;74115;55.806;37.754;2024-03-23T09:48:30;6.32;;;4.30;;
84033;SDS011;74115;55.806;37.754;2024-03-23T09:50:56;9.88;;;6.05;;
84033;SDS011;74115;55.806;37.754;2024-03-23T09:53:22;7.72;;;6.30;;
84033;SDS011;74115;55.806;37.754;2024-03-23T09:55:48;8.63;;;5.85;;
84033;SDS011;74115;55.806;37.754;2024-03-23T09:58:15;9.77;;;5.63;;
84033;SDS011;74115;55.806;37.754;2024-03-23T10:00:41;9.30;;;5.68;;
84033;SDS011;74115;55.806;37.754;2024-03-23T10:03:08;8.50;;;5.97;;
84033;SDS011;74115;55.806;37.754;2024-03-23T10:05:36;8.45;;;5.57;;
84033;SDS011;74115;55.806;37.754;2024-03-23T10:10:43;8.75;;;5.50;;
84033;SDS011;74115;55.806;37.754;2024-03-23T10:13:10;8.25;;;5.63;;
84033;SDS011;74115;55.806;37.754;2024-03-23T10:15:38;8.82;;;5.18;;
84033;SDS011;74115;55.806;37.754;2024-03-23T10:18:25;8.32;;;5.50;;
84033;SDS011;74115;55.806;37.754;2024-03-23T10:20:51;8.60;;;5.55;;
84033;SDS011;74115;55.806;37.754;2024-03-23T10:23:17;8.15;;;5.20;;
84033;SDS011;74115;55.806;37.754;2024-03-23T10:25:43;9.60;;;5.97;;
84033;SDS011;74115;55.806;37.754;2024-03-23T10:28:11;8.50;;;5.03;;
84033;SDS011;74115;55.806;37.754;2024-03-23T10:30:36;13.43;;;5.72;;
84033;SDS011;74115;55.806;37.754;2024-03-23T10:33:09;11.82;;;6.28;;
84033;SDS011;74115;55.806;37.754;2024-03-23T10:35:36;7.25;;;5.10;;
84033;SDS011;74115;55.806;37.754;2024-03-23T10:38:06;10.73;;;5.00;;
84033;SDS011;74115;55.806;37.754;2024-03-23T10:40:35;8.27;;;5.20;;
84033;SDS011;74115;55.806;37.754;2024-03-23T10:43:05;24.77;;;7.15;;
84033;SDS011;74115;55.806;37.754;2024-03-23T10:45:31;9.32;;;5.80;;
84033;SDS011;74115;55.806;37.754;2024-03-23T10:47:57;8.18;;;6.47;;
84033;SDS011;74115;55.806;37.754;2024-03-23T10:50:23;11.20;;;5.50;;
84033;SDS011;74115;55.806;37.754;2024-03-23T10:52:49;8.95;;;6.88;;
84033;SDS011;74115;55.806;37.754;2024-03-23T10:55:19;9.00;;;5.28;;
84033;SDS011;74115;55.806;37.754;2024-03-23T10:57:49;12.45;;;6.53;;
84033;SDS011;74115;55.806;37.754;2024-03-23T11:00:17;9.93;;;5.90;;
84033;SDS011;74115;55.806;37.754;2024-03-23T11:02:46;7.95;;;6.05;;
84033;SDS011;74115;55.806;37.754;2024-03-23T11:05:31;10.75;;;5.88;;
84033;SDS011;74115;55.806;37.754;2024-03-23T11:07:57;8.55;;;5.72;;
84033;SDS011;74115;55.806;37.754;2024-03-23T11:10:29;8.27;;;5.35;;
84033;SDS011;74115;55.806;37.754;2024-03-23T11:13:21;8.07;;;6.00;;
84033;SDS011;74115;55.806;37.754;2024-03-23T11:15:47;10.48;;;6.65;;
84033;SDS011;74115;55.806;37.754;2024-03-23T11:18:12;8.65;;;6.00;;
84033;SDS011;74115;55.806;37.754;2024-03-23T11:20:46;8.40;;;5.85;;
84033;SDS011;74115;55.806;37.754;2024-03-23T11:23:27;10.50;;;6.43;;
84033;SDS011;74115;55.806;37.754;2024-03-23T11:25:53;9.30;;;5.63;;
84033;SDS011;74115;55.806;37.754;2024-03-23T11:28:19;9.82;;;6.75;;
84033;SDS011;74115;55.806;37.754;2024-03-23T11:30:45;11.15;;;6.15;;
84033;SDS011;74115;55.806;37.754;2024-03-23T11:33:11;9.45;;;6.20;;
84033;SDS011;74115;55.806;37.754;2024-03-23T11:35:38;9.10;;;6.20;;
84033;SDS011;74115;55.806;37.754;2024-03-23T11:40:37;10.05;;;6.40;;
84033;SDS011;74115;55.806;37.754;2024-03-23T11:43:05;9.38;;;6.75;;
84033;SDS011;74115;55.806;37.754;2024-03-23T11:45:39;10.00;;;6.30;;
84033;SDS011;74115;55.806;37.754;2024-03-23T11:48:09;10.65;;;5.78;;
84033;SDS011;74115;55.806;37.754;2024-03-23T11:50:39;11.55;;;5.78;;
84033;SDS011;74115;55.806;37.754;2024-03-23T11:55:43;11.07;;;6.45;;
84033;SDS011;74115;55.806;37.754;2024-03-23T11:58:19;11.20;;;6.60;;
84033;SDS011;74115;55.806;37.754;2024-03-23T12:00:58;9.38;;;5.93;;
84033;SDS011;74115;55.806;37.754;2024-03-23T12:03:25;11.98;;;6.55;;
84033;SDS011;74115;55.806;37.754;2024-03-23T12:05:52;10.65;;;6.93;;
84033;SDS011;74115;55.806;37.754;2024-03-23T12:08:29;10.23;;;6.57;;
84033;SDS011;74115;55.806;37.754;2024-03-23T12:11:05;9.27;;;5.18;;
84033;SDS011;74115;55.806;37.754;2024-03-23T12:13:34;12.30;;;7.60;;
84033;SDS011;74115;55.806;37.754;2024-03-23T12:16:19;10.73;;;7.57;;
84033;SDS011;74115;55.806;37.754;2024-03-23T12:18:49;9.93;;;7.25;;
84033;SDS011;74115;55.806;37.754;2024-03-23T12:21:16;12.95;;;7.43;;
84033;SDS011;74115;55.806;37.754;2024-03-23T12:23:42;12.10;;;6.72;;
84033;SDS011;74115;55.806;37.754;2024-03-23T12:26:13;12.30;;;7.25;;
84033;SDS011;74115;55.806;37.754;2024-03-23T12:28:40;9.80;;;6.82;;
84033;SDS011;74115;55.806;37.754;2024-03-23T12:31:06;11.25;;;6.55;;
84033;SDS011;74115;55.806;37.754;2024-03-23T12:33:32;14.48;;;8.35;;
84033;SDS011;74115;55.806;37.754;2024-03-23T12:35:57;9.95;;;7.32;;
84033;SDS011;74115;55.806;37.754;2024-03-23T12:38:26;13.00;;;6.90;;
84033;SDS011;74115;55.806;37.754;2024-03-23T12:40:52;10.70;;;6.72;;
84033;SDS011;74115;55.806;37.754;2024-03-23T12:43:18;10.75;;;6.90;;
84033;SDS011;74115;55.806;37.754;2024-03-23T12:45:47;12.65;;;6.63;;
84033;SDS011;74115;55.806;37.754;2024-03-23T12:48:13;12.20;;;7.03;;
84033;SDS011;74115;55.806;37.754;2024-03-23T12:50:39;13.30;;;7.90;;
84033;SDS011;74115;55.806;37.754;2024-03-23T12:53:05;12.88;;;7.20;;
84033;SDS011;74115;55.806;37.754;2024-03-23T12:55:30;12.15;;;7.35;;
84033;SDS011;74115;55.806;37.754;2024-03-23T12:57:56;12.85;;;7.97;;
84033;SDS011;74115;55.806;37.754;2024-03-23T13:00:22;12.10;;;8.30;;
84033;SDS011;74115;55.806;37.754;2024-03-23T13:02:48;12.10;;;8.02;;
84033;SDS011;74115;55.806;37.754;2024-03-23T13:05:14;13.70;;;7.45;;
84033;SDS011;74115;55.806;37.754;2024-03-23T13:07:40;14.65;;;9.07;;
84033;SDS011;74115;55.806;37.754;2024-03-23T13:10:06;12.18;;;6.45;;
84033;SDS011;74115;55.806;37.754;2024-03-23T13:12:32;12.40;;;6.57;;
84033;SDS011;74115;55.806;37.754;2024-03-23T13:15:01;10.43;;;6.68;;
84033;SDS011;74115;55.806;37.754;2024-03-23T13:17:32;12.52;;;6.70;;
84033;SDS011;74115;55.806;37.754;2024-03-23T13:19:58;11.85;;;6.80;;
84033;SDS011;74115;55.806;37.754;2024-03-23T13:22:31;11.75;;;7.03;;
84033;SDS011;74115;55.806;37.754;2024-03-23T13:24:57;12.65;;;8.00;;
84033;SDS011;74115;55.806;37.754;2024-03-23T13:27:25;14.82;;;8.45;;
84033;SDS011;74115;55.806;37.754;2024-03-23T13:29:51;17.38;;;7.38;;
84033;SDS011;74115;55.806;37.754;2024-03-23T13:32:17;14.60;;;9.55;;
84033;SDS011;74115;55.806;37.754;2024-03-23T13:34:42;14.88;;;9.18;;
84033;SDS011;74115;55.806;37.754;2024-03-23T13:37:08;12.63;;;8.23;;
84033;SDS011;74115;55.806;37.754;2024-03-23T13:39:35;11.73;;;7.63;;
84033;SDS011;74115;55.806;37.754;2024-03-23T13:42:06;14.77;;;7.47;;
84033;SDS011;74115;55.806;37.754;2024-03-23T13:44:34;17.25;;;9.52;;
84033;SDS011;74115;55.806;37.754;2024-03-23T13:47:00;11.65;;;7.03;;
84033;SDS011;74115;55.806;37.754;2024-03-23T13:49:26;12.80;;;7.63;;
84033;SDS011;74115;55.806;37.754;2024-03-23T13:51:54;12.82;;;7.13;;
84033;SDS011;74115;55.806;37.754;2024-03-23T13:54:20;11.25;;;7.30;;
84033;SDS011;74115;55.806;37.754;2024-03-23T13:56:50;13.10;;;8.60;;
84033;SDS011;74115;55.806;37.754;2024-03-23T13:59:16;11.13;;;7.88;;
84033;SDS011;74115;55.806;37.754;2024-03-23T14:01:42;9.85;;;5.72;;
84033;SDS011;74115;55.806;37.754;2024-03-23T14:04:11;11.65;;;6.82;;
84033;SDS011;74115;55.806;37.754;2024-03-23T14:06:45;15.70;;;8.70;;
84033;SDS011;74115;55.806;37.754;2024-03-23T14:09:16;11.20;;;7.20;;
84033;SDS011;74115;55.806;37.754;2024-03-23T14:11:47;9.65;;;6.70;;
84033;SDS011;74115;55.806;37.754;2024-03-23T14:14:13;10.82;;;7.00;;
84033;SDS011;74115;55.806;37.754;2024-03-23T14:16:42;7.70;;;5.32;;
84033;SDS011;74115;55.806;37.754;2024-03-23T14:19:08;12.27;;;7.10;;
84033;SDS011;74115;55.806;37.754;2024-03-23T14:21:34;10.10;;;6.40;;
84033;SDS011;74115;55.806;37.754;2024-03-23T14:24:00;9.80;;;6.57;;
84033;SDS011;74115;55.806;37.754;2024-03-23T14:26:27;8.70;;;6.82;;
84033;SDS011;74115;55.806;37.754;2024-03-23T14:28:53;8.30;;;7.22;;
84033;SDS011;74115;55.806;37.754;2024-03-23T14:31:19;10.93;;;6.03;;
84033;SDS011;74115;55.806;37.754;2024-03-23T14:33:45;8.50;;;5.85;;
84033;SDS011;74115;55.806;37.754;2024-03-23T14:36:13;9.35;;;5.93;;
84033;SDS011;74115;55.806;37.754;2024-03-23T14:38:40;10.05;;;6.22;;
84033;SDS011;74115;55.806;37.754;2024-03-23T14:41:06;12.25;;;6.35;;
84033;SDS011;74115;55.806;37.754;2024-03-23T14:43:34;8.73;;;6.35;;
84033;SDS011;74115;55.806;37.754;2024-03-23T14:46:10;8.45;;;5.30;;
84033;SDS011;74115;55.806;37.754;2024-03-23T14:48:40;9.80;;;6.15;;
84033;SDS011;74115;55.806;37.754;2024-03-23T14:51:08;9.43;;;5.75;;
84033;SDS011;74115;55.806;37.754;2024-03-23T14:53:38;5.68;;;4.72;;
84033;SDS011;74115;55.806;37.754;2024-03-23T14:56:06;8.30;;;6.65;;
84033;SDS011;74115;55.806;37.754;2024-03-23T14:58:41;8.80;;;5.55;;
84033;SDS011;74115;55.806;37.754;2024-03-23T15:01:07;7.53;;;5.65;;
84033;SDS011;74115;55.806;37.754;2024-03-23T15:03:37;17.88;;;5.60;;
84033;SDS011;74115;55.806;37.754;2024-03-23T15:06:08;9.48;;;6.55;;
84033;SDS011;74115;55.806;37.754;2024-03-23T15:08:37;8.27;;;5.75;;
84033;SDS011;74115;55.806;37.754;2024-03-23T15:11:06;10.73;;;6.07;;
84033;SDS011;74115;55.806;37.754;2024-03-23T15:13:39;7.78;;;4.60;;
84033;SDS011;74115;55.806;37.754;2024-03-23T15:16:05;11.30;;;6.35;;
84033;SDS011;74115;55.806;37.754;2024-03-23T15:18:32;6.95;;;4.18;;
84033;SDS011;74115;55.806;37.754;2024-03-23T15:20:59;10.75;;;7.03;;
84033;SDS011;74115;55.806;37.754;2024-03-23T15:23:29;7.43;;;5.95;;
84033;SDS011;74115;55.806;37.754;2024-03-23T15:25:55;9.30;;;5.80;;
84033;SDS011;74115;55.806;37.754;2024-03-23T15:28:25;8.73;;;5.68;;